sensor_id;sensor_type;location;lat;lon;timestamp;pressure;altitude;pressure_sealevel;temperature;humidity
22755;BME280;11544;42.020;23.094;2023-04-28T00:01:37;97398.53;;;8.10;60.53
22755;BME280;11544;42.020;23.094;2023-04-28T00:04:04;97402.28;;;8.36;59.59
22755;BME280;11544;42.020;23.094;2023-04-28T00:06:33;97398.75;;;8.40;59.65
22755;BME280;11544;42.020;23.094;2023-04-28T00:09:01;97395.72;;;8.19;60.99
22755;BME280;11544;42.020;23.094;2023-04-28T00:12:11;97399.50;;;8.06;61.23
22755;BME280;11544;42.020;23.094;2023-04-28T00:14:42;97393.50;;;8.04;61.90
22755;BME280;11544;42.020;23.094;2023-04-28T00:17:13;97397.53;;;8.17;61.03
22755;BME280;11544;42.020;23.094;2023-04-28T00:19:51;97401.94;;;8.12;62.00
22755;BME280;11544;42.020;23.094;2023-04-28T00:22:18;97405.44;;;8.50;60.37
22755;BME280;11544;42.020;23.094;2023-04-28T00:24:46;97407.22;;;8.09;60.91
22755;BME280;11544;42.020;23.094;2023-04-28T00:27:14;97407.94;;;8.16;61.01
22755;BME280;11544;42.020;23.094;2023-04-28T00:29:41;97403.22;;;7.94;62.99
22755;BME280;11544;42.020;23.094;2023-04-28T00:32:07;97407.44;;;8.00;61.76
22755;BME280;11544;42.020;23.094;2023-04-28T00:34:36;97407.75;;;8.23;60.74
22755;BME280;11544;42.020;23.094;2023-04-28T00:37:07;97402.53;;;7.86;62.02
22755;BME280;11544;42.020;23.094;2023-04-28T00:40:00;97403.41;;;8.25;62.19
22755;BME280;11544;42.020;23.094;2023-04-28T00:42:27;97415.75;;;8.16;61.54
22755;BME280;11544;42.020;23.094;2023-04-28T00:45:04;97405.16;;;8.23;61.24
22755;BME280;11544;42.020;23.094;2023-04-28T00:47:44;97404.41;;;7.79;62.24
22755;BME280;11544;42.020;23.094;2023-04-28T00:50:29;97413.72;;;7.90;62.13
22755;BME280;11544;42.020;23.094;2023-04-28T00:53:05;97407.34;;;7.64;62.53
22755;BME280;11544;42.020;23.094;2023-04-28T00:55:33;97404.22;;;7.47;64.60
22755;BME280;11544;42.020;23.094;2023-04-28T00:58:04;97417.81;;;7.59;64.67
22755;BME280;11544;42.020;23.094;2023-04-28T01:00:47;97412.94;;;7.42;65.94
22755;BME280;11544;42.020;23.094;2023-04-28T01:03:17;97416.47;;;7.38;66.24
22755;BME280;11544;42.020;23.094;2023-04-28T01:05:46;97420.91;;;7.33;67.01
22755;BME280;11544;42.020;23.094;2023-04-28T01:08:22;97424.16;;;7.45;65.91
22755;BME280;11544;42.020;23.094;2023-04-28T01:10:55;97429.44;;;7.38;66.42
22755;BME280;11544;42.020;23.094;2023-04-28T01:13:38;97431.38;;;7.29;67.15
22755;BME280;11544;42.020;23.094;2023-04-28T01:16:23;97431.94;;;7.45;62.15
22755;BME280;11544;42.020;23.094;2023-04-28T01:18:53;97433.53;;;7.94;60.40
22755;BME280;11544;42.020;23.094;2023-04-28T01:21:27;97434.78;;;7.74;60.52
22755;BME280;11544;42.020;23.094;2023-04-28T01:24:04;97442.16;;;8.35;57.07
22755;BME280;11544;42.020;23.094;2023-04-28T01:26:47;97432.88;;;8.23;56.79
22755;BME280;11544;42.020;23.094;2023-04-28T01:29:14;97435.13;;;8.40;54.97
22755;BME280;11544;42.020;23.094;2023-04-28T01:31:41;97430.53;;;8.51;55.47
22755;BME280;11544;42.020;23.094;2023-04-28T01:34:08;97437.59;;;8.46;54.80
22755;BME280;11544;42.020;23.094;2023-04-28T01:36:35;97429.81;;;8.46;54.95
22755;BME280;11544;42.020;23.094;2023-04-28T01:39:08;97434.25;;;8.39;55.11
22755;BME280;11544;42.020;23.094;2023-04-28T01:41:37;97430.31;;;8.60;53.74
22755;BME280;11544;42.020;23.094;2023-04-28T01:44:04;97427.88;;;8.53;54.34
22755;BME280;11544;42.020;23.094;2023-04-28T01:46:50;97425.56;;;8.42;54.07
22755;BME280;11544;42.020;23.094;2023-04-28T01:49:17;97434.44;;;8.69;54.26
22755;BME280;11544;42.020;23.094;2023-04-28T01:51:43;97430.03;;;7.95;57.35
22755;BME280;11544;42.020;23.094;2023-04-28T01:54:11;97433.84;;;7.35;61.29
22755;BME280;11544;42.020;23.094;2023-04-28T01:56:38;97441.75;;;7.29;63.12
22755;BME280;11544;42.020;23.094;2023-04-28T01:59:06;97435.66;;;6.80;66.49
22755;BME280;11544;42.020;23.094;2023-04-28T02:01:33;97441.00;;;6.72;67.05
22755;BME280;11544;42.020;23.094;2023-04-28T02:04:00;97447.00;;;6.76;67.71
22755;BME280;11544;42.020;23.094;2023-04-28T02:06:27;97448.75;;;6.74;67.96
22755;BME280;11544;42.020;23.094;2023-04-28T02:08:54;97446.53;;;6.49;68.91
22755;BME280;11544;42.020;23.094;2023-04-28T02:11:21;97452.34;;;6.64;69.27
22755;BME280;11544;42.020;23.094;2023-04-28T02:13:48;97456.72;;;6.62;69.96
22755;BME280;11544;42.020;23.094;2023-04-28T02:16:16;97456.72;;;7.13;67.99
22755;BME280;11544;42.020;23.094;2023-04-28T02:18:43;97456.41;;;6.80;68.44
22755;BME280;11544;42.020;23.094;2023-04-28T02:21:10;97462.31;;;6.90;67.74
22755;BME280;11544;42.020;23.094;2023-04-28T02:23:38;97464.25;;;6.77;68.20
22755;BME280;11544;42.020;23.094;2023-04-28T02:26:06;97460.84;;;6.73;68.92
22755;BME280;11544;42.020;23.094;2023-04-28T02:28:33;97460.03;;;6.70;69.62
22755;BME280;11544;42.020;23.094;2023-04-28T02:31:07;97460.78;;;6.76;69.27
22755;BME280;11544;42.020;23.094;2023-04-28T02:33:37;97461.91;;;6.60;69.21
22755;BME280;11544;42.020;23.094;2023-04-28T02:36:13;97460.78;;;7.28;67.86
22755;BME280;11544;42.020;23.094;2023-04-28T02:38:41;97473.47;;;6.93;68.70
22755;BME280;11544;42.020;23.094;2023-04-28T02:41:22;97477.13;;;6.80;69.06
22755;BME280;11544;42.020;23.094;2023-04-28T02:43:54;97473.06;;;6.65;71.64
22755;BME280;11544;42.020;23.094;2023-04-28T02:46:24;97484.34;;;6.61;71.58
22755;BME280;11544;42.020;23.094;2023-04-28T02:48:51;97482.06;;;6.43;72.09
22755;BME280;11544;42.020;23.094;2023-04-28T02:51:19;97478.44;;;6.53;72.30
22755;BME280;11544;42.020;23.094;2023-04-28T02:53:46;97484.84;;;6.29;73.35
22755;BME280;11544;42.020;23.094;2023-04-28T02:56:15;97487.38;;;6.30;73.74
22755;BME280;11544;42.020;23.094;2023-04-28T02:58:45;97498.03;;;6.09;73.15
22755;BME280;11544;42.020;23.094;2023-04-28T03:01:12;97486.84;;;6.69;71.60
22755;BME280;11544;42.020;23.094;2023-04-28T03:03:55;97494.53;;;6.73;70.46
22755;BME280;11544;42.020;23.094;2023-04-28T03:06:56;97502.78;;;6.40;72.41
22755;BME280;11544;42.020;23.094;2023-04-28T03:09:29;97502.84;;;6.35;72.43
22755;BME280;11544;42.020;23.094;2023-04-28T03:12:24;97498.50;;;6.37;72.11
22755;BME280;11544;42.020;23.094;2023-04-28T03:14:57;97507.06;;;6.42;71.11
22755;BME280;11544;42.020;23.094;2023-04-28T03:17:25;97510.63;;;6.35;72.32
22755;BME280;11544;42.020;23.094;2023-04-28T03:19:55;97512.72;;;6.08;72.68
22755;BME280;11544;42.020;23.094;2023-04-28T03:22:25;97519.00;;;5.84;73.97
22755;BME280;11544;42.020;23.094;2023-04-28T03:24:53;97524.66;;;6.19;74.28
22755;BME280;11544;42.020;23.094;2023-04-28T03:27:36;97519.81;;;6.59;71.59
22755;BME280;11544;42.020;23.094;2023-04-28T03:30:03;97533.97;;;6.30;72.46
22755;BME280;11544;42.020;23.094;2023-04-28T03:32:31;97529.03;;;6.15;72.06
22755;BME280;11544;42.020;23.094;2023-04-28T03:34:57;97541.03;;;6.21;73.12
22755;BME280;11544;42.020;23.094;2023-04-28T03:37:24;97534.13;;;6.83;71.37
22755;BME280;11544;42.020;23.094;2023-04-28T03:39:51;97540.53;;;6.56;71.24
22755;BME280;11544;42.020;23.094;2023-04-28T03:42:18;97546.91;;;6.33;72.17
22755;BME280;11544;42.020;23.094;2023-04-28T03:44:48;97546.38;;;6.07;74.24
22755;BME280;11544;42.020;23.094;2023-04-28T03:47:15;97549.50;;;6.33;73.79
22755;BME280;11544;42.020;23.094;2023-04-28T03:49:42;97565.06;;;6.30;73.47
22755;BME280;11544;42.020;23.094;2023-04-28T03:52:09;97568.81;;;6.06;74.02
22755;BME280;11544;42.020;23.094;2023-04-28T03:54:36;97565.41;;;6.69;70.83
22755;BME280;11544;42.020;23.094;2023-04-28T03:57:06;97565.03;;;6.94;69.66
22755;BME280;11544;42.020;23.094;2023-04-28T03:59:33;97570.97;;;6.42;70.32
22755;BME280;11544;42.020;23.094;2023-04-28T04:02:00;97577.19;;;6.28;70.92
22755;BME280;11544;42.020;23.094;2023-04-28T04:04:27;97582.28;;;6.33;71.68
22755;BME280;11544;42.020;23.094;2023-04-28T04:06:54;97583.31;;;6.85;68.83
22755;BME280;11544;42.020;23.094;2023-04-28T04:09:21;97592.19;;;6.68;68.99
22755;BME280;11544;42.020;23.094;2023-04-28T04:11:48;97602.50;;;6.03;69.73
22755;BME280;11544;42.020;23.094;2023-04-28T04:14:15;97596.34;;;6.13;70.71
22755;BME280;11544;42.020;23.094;2023-04-28T04:16:43;97598.78;;;6.26;70.65
22755;BME280;11544;42.020;23.094;2023-04-28T04:19:10;97600.41;;;6.33;70.21
22755;BME280;11544;42.020;23.094;2023-04-28T04:21:37;97598.06;;;6.14;69.93
22755;BME280;11544;42.020;23.094;2023-04-28T04:24:04;97601.28;;;6.32;70.46
22755;BME280;11544;42.020;23.094;2023-04-28T04:26:31;97600.19;;;6.51;68.67
22755;BME280;11544;42.020;23.094;2023-04-28T04:28:59;97602.09;;;6.39;68.07
22755;BME280;11544;42.020;23.094;2023-04-28T04:31:28;97593.72;;;6.83;68.36
22755;BME280;11544;42.020;23.094;2023-04-28T04:34:03;97591.66;;;7.05;66.38
22755;BME280;11544;42.020;23.094;2023-04-28T04:36:36;97589.75;;;6.57;66.90
22755;BME280;11544;42.020;23.094;2023-04-28T04:39:31;97603.66;;;6.50;67.90
22755;BME280;11544;42.020;23.094;2023-04-28T04:42:04;97598.91;;;6.83;67.31
22755;BME280;11544;42.020;23.094;2023-04-28T04:44:50;97601.44;;;6.88;65.10
22755;BME280;11544;42.020;23.094;2023-04-28T04:47:17;97600.41;;;7.51;63.56
22755;BME280;11544;42.020;23.094;2023-04-28T04:49:45;97594.34;;;8.01;61.57
22755;BME280;11544;42.020;23.094;2023-04-28T04:52:15;97597.09;;;7.94;60.75
22755;BME280;11544;42.020;23.094;2023-04-28T04:54:42;97589.00;;;8.92;57.70
22755;BME280;11544;42.020;23.094;2023-04-28T04:57:10;97598.19;;;9.06;55.59
22755;BME280;11544;42.020;23.094;2023-04-28T04:59:37;97592.47;;;9.96;52.95
22755;BME280;11544;42.020;23.094;2023-04-28T05:02:04;97597.38;;;10.09;52.21
22755;BME280;11544;42.020;23.094;2023-04-28T05:04:32;97598.38;;;9.70;52.82
22755;BME280;11544;42.020;23.094;2023-04-28T05:07:02;97602.03;;;9.63;52.25
22755;BME280;11544;42.020;23.094;2023-04-28T05:09:29;97598.69;;;10.55;50.54
22755;BME280;11544;42.020;23.094;2023-04-28T05:11:57;97602.25;;;10.52;50.86
22755;BME280;11544;42.020;23.094;2023-04-28T05:14:24;97593.13;;;11.50;48.57
22755;BME280;11544;42.020;23.094;2023-04-28T05:16:51;97603.50;;;10.39;51.59
22755;BME280;11544;42.020;23.094;2023-04-28T05:19:18;97604.13;;;9.83;53.80
22755;BME280;11544;42.020;23.094;2023-04-28T05:21:45;97593.94;;;11.52;56.30
22755;BME280;11544;42.020;23.094;2023-04-28T05:24:14;97597.66;;;10.60;55.68
22755;BME280;11544;42.020;23.094;2023-04-28T05:26:41;97598.59;;;10.58;52.13
22755;BME280;11544;42.020;23.094;2023-04-28T05:29:08;97593.25;;;11.99;50.24
22755;BME280;11544;42.020;23.094;2023-04-28T05:31:35;97584.53;;;12.70;56.39
22755;BME280;11544;42.020;23.094;2023-04-28T05:34:02;97589.06;;;12.67;55.62
22755;BME280;11544;42.020;23.094;2023-04-28T05:36:28;97593.75;;;14.10;53.07
22755;BME280;11544;42.020;23.094;2023-04-28T05:38:55;97588.91;;;14.01;51.01
22755;BME280;11544;42.020;23.094;2023-04-28T05:41:22;97595.00;;;12.23;49.99
22755;BME280;11544;42.020;23.094;2023-04-28T05:43:49;97594.63;;;12.34;48.42
22755;BME280;11544;42.020;23.094;2023-04-28T05:46:17;97599.06;;;13.88;48.93
22755;BME280;11544;42.020;23.094;2023-04-28T05:48:56;97594.69;;;13.24;45.95
22755;BME280;11544;42.020;23.094;2023-04-28T05:51:27;97590.72;;;13.80;45.59
22755;BME280;11544;42.020;23.094;2023-04-28T05:53:53;97595.41;;;13.71;44.00
22755;BME280;11544;42.020;23.094;2023-04-28T05:56:20;97587.22;;;14.00;43.61
22755;BME280;11544;42.020;23.094;2023-04-28T05:58:48;97585.56;;;13.76;47.32
22755;BME280;11544;42.020;23.094;2023-04-28T06:01:16;97589.00;;;12.45;45.75
22755;BME280;11544;42.020;23.094;2023-04-28T06:03:43;97589.25;;;14.13;45.76
22755;BME280;11544;42.020;23.094;2023-04-28T06:06:11;97579.69;;;14.71;44.22
22755;BME280;11544;42.020;23.094;2023-04-28T06:08:39;97574.22;;;14.94;43.15
22755;BME280;11544;42.020;23.094;2023-04-28T06:11:06;97579.41;;;13.57;43.44
22755;BME280;11544;42.020;23.094;2023-04-28T06:13:33;97579.25;;;13.82;47.79
22755;BME280;11544;42.020;23.094;2023-04-28T06:16:00;97567.44;;;14.71;42.32
22755;BME280;11544;42.020;23.094;2023-04-28T06:18:28;97580.13;;;14.61;46.00
22755;BME280;11544;42.020;23.094;2023-04-28T06:20:58;97572.88;;;14.86;42.04
22755;BME280;11544;42.020;23.094;2023-04-28T06:23:24;97567.88;;;14.23;43.64
22755;BME280;11544;42.020;23.094;2023-04-28T06:25:51;97578.31;;;14.04;43.27
22755;BME280;11544;42.020;23.094;2023-04-28T06:28:18;97572.41;;;14.38;43.76
22755;BME280;11544;42.020;23.094;2023-04-28T06:30:47;97570.06;;;14.71;43.61
22755;BME280;11544;42.020;23.094;2023-04-28T06:33:14;97561.13;;;14.36;43.35
22755;BME280;11544;42.020;23.094;2023-04-28T06:35:41;97559.59;;;14.51;41.16
22755;BME280;11544;42.020;23.094;2023-04-28T06:38:07;97564.66;;;14.16;40.42
22755;BME280;11544;42.020;23.094;2023-04-28T06:40:34;97567.34;;;14.14;40.63
22755;BME280;11544;42.020;23.094;2023-04-28T06:43:02;97563.06;;;13.30;41.30
22755;BME280;11544;42.020;23.094;2023-04-28T06:45:29;97564.09;;;13.68;42.17
22755;BME280;11544;42.020;23.094;2023-04-28T06:47:56;97562.53;;;13.85;40.94
22755;BME280;11544;42.020;23.094;2023-04-28T06:50:23;97561.56;;;13.23;40.26
22755;BME280;11544;42.020;23.094;2023-04-28T06:52:50;97570.09;;;13.50;39.19
22755;BME280;11544;42.020;23.094;2023-04-28T06:55:17;97565.97;;;13.65;39.79
22755;BME280;11544;42.020;23.094;2023-04-28T06:57:44;97554.44;;;14.87;40.42
22755;BME280;11544;42.020;23.094;2023-04-28T07:00:11;97558.16;;;15.19;39.30
22755;BME280;11544;42.020;23.094;2023-04-28T07:02:39;97573.31;;;13.97;38.52
22755;BME280;11544;42.020;23.094;2023-04-28T07:05:06;97559.31;;;14.95;39.55
22755;BME280;11544;42.020;23.094;2023-04-28T07:07:33;97567.38;;;14.73;38.99
22755;BME280;11544;42.020;23.094;2023-04-28T07:10:04;97568.75;;;14.99;39.32
22755;BME280;11544;42.020;23.094;2023-04-28T07:12:30;97561.91;;;14.58;38.31
22755;BME280;11544;42.020;23.094;2023-04-28T07:14:57;97566.06;;;14.44;39.25
22755;BME280;11544;42.020;23.094;2023-04-28T07:17:24;97556.78;;;14.16;39.30
22755;BME280;11544;42.020;23.094;2023-04-28T07:19:51;97553.81;;;14.63;38.42
22755;BME280;11544;42.020;23.094;2023-04-28T07:22:18;97561.31;;;14.90;38.53
22755;BME280;11544;42.020;23.094;2023-04-28T07:24:46;97548.06;;;15.29;37.57
22755;BME280;11544;42.020;23.094;2023-04-28T07:27:13;97555.28;;;15.43;39.39
22755;BME280;11544;42.020;23.094;2023-04-28T07:29:40;97553.56;;;15.06;38.97
22755;BME280;11544;42.020;23.094;2023-04-28T07:32:08;97560.75;;;15.56;36.85
22755;BME280;11544;42.020;23.094;2023-04-28T07:34:36;97546.47;;;15.08;39.26
22755;BME280;11544;42.020;23.094;2023-04-28T07:37:03;97553.69;;;14.27;37.90
22755;BME280;11544;42.020;23.094;2023-04-28T07:39:31;97557.16;;;14.08;37.58
22755;BME280;11544;42.020;23.094;2023-04-28T07:42:00;97550.75;;;14.53;38.14
22755;BME280;11544;42.020;23.094;2023-04-28T07:44:29;97550.53;;;14.00;36.23
22755;BME280;11544;42.020;23.094;2023-04-28T07:46:56;97545.16;;;14.80;36.68
22755;BME280;11544;42.020;23.094;2023-04-28T07:49:26;97538.88;;;15.38;37.79
22755;BME280;11544;42.020;23.094;2023-04-28T07:51:53;97547.13;;;14.94;37.24
22755;BME280;11544;42.020;23.094;2023-04-28T07:54:21;97535.38;;;15.74;37.43
22755;BME280;11544;42.020;23.094;2023-04-28T07:56:48;97536.94;;;15.94;35.23
22755;BME280;11544;42.020;23.094;2023-04-28T07:59:15;97549.00;;;15.45;36.87
22755;BME280;11544;42.020;23.094;2023-04-28T08:01:42;97551.97;;;15.57;34.70
22755;BME280;11544;42.020;23.094;2023-04-28T08:04:09;97537.75;;;15.78;34.95
22755;BME280;11544;42.020;23.094;2023-04-28T08:06:37;97542.44;;;16.06;36.49
22755;BME280;11544;42.020;23.094;2023-04-28T08:09:05;97545.53;;;15.62;35.26
22755;BME280;11544;42.020;23.094;2023-04-28T08:11:33;97540.06;;;16.18;34.46
22755;BME280;11544;42.020;23.094;2023-04-28T08:14:00;97526.97;;;16.83;35.80
22755;BME280;11544;42.020;23.094;2023-04-28T08:16:31;97531.13;;;16.38;34.27
22755;BME280;11544;42.020;23.094;2023-04-28T08:19:00;97531.91;;;15.73;34.46
22755;BME280;11544;42.020;23.094;2023-04-28T08:21:27;97537.50;;;15.31;34.92
22755;BME280;11544;42.020;23.094;2023-04-28T08:23:54;97537.06;;;15.21;34.92
22755;BME280;11544;42.020;23.094;2023-04-28T08:26:21;97544.47;;;14.57;34.70
22755;BME280;11544;42.020;23.094;2023-04-28T08:28:50;97541.66;;;16.04;33.45
22755;BME280;11544;42.020;23.094;2023-04-28T08:31:17;97535.69;;;16.01;34.58
22755;BME280;11544;42.020;23.094;2023-04-28T08:33:44;97531.63;;;15.95;34.04
22755;BME280;11544;42.020;23.094;2023-04-28T08:36:14;97528.28;;;16.74;34.62
22755;BME280;11544;42.020;23.094;2023-04-28T08:38:42;97513.03;;;16.97;35.29
22755;BME280;11544;42.020;23.094;2023-04-28T08:41:13;97526.97;;;17.29;32.84
22755;BME280;11544;42.020;23.094;2023-04-28T08:43:41;97527.00;;;15.83;33.19
22755;BME280;11544;42.020;23.094;2023-04-28T08:46:09;97523.34;;;16.03;33.36
22755;BME280;11544;42.020;23.094;2023-04-28T08:48:41;97516.03;;;16.41;35.29
22755;BME280;11544;42.020;23.094;2023-04-28T08:51:16;97522.63;;;15.30;34.02
22755;BME280;11544;42.020;23.094;2023-04-28T08:53:49;97514.34;;;16.40;34.73
22755;BME280;11544;42.020;23.094;2023-04-28T08:56:23;97508.13;;;17.21;33.44
22755;BME280;11544;42.020;23.094;2023-04-28T08:58:53;97514.13;;;16.12;34.27
22755;BME280;11544;42.020;23.094;2023-04-28T09:01:20;97505.78;;;16.52;33.39
22755;BME280;11544;42.020;23.094;2023-04-28T09:03:53;97502.97;;;16.40;33.88
22755;BME280;11544;42.020;23.094;2023-04-28T09:06:20;97503.34;;;16.65;33.18
22755;BME280;11544;42.020;23.094;2023-04-28T09:08:48;97500.31;;;15.91;32.99
22755;BME280;11544;42.020;23.094;2023-04-28T09:11:14;97488.63;;;16.45;31.74
22755;BME280;11544;42.020;23.094;2023-04-28T09:13:42;97499.75;;;16.98;34.01
22755;BME280;11544;42.020;23.094;2023-04-28T09:16:09;97495.06;;;16.24;32.73
22755;BME280;11544;42.020;23.094;2023-04-28T09:18:36;97506.66;;;15.34;33.21
22755;BME280;11544;42.020;23.094;2023-04-28T09:21:10;97483.44;;;16.76;33.08
22755;BME280;11544;42.020;23.094;2023-04-28T09:23:48;97494.88;;;16.27;33.41
22755;BME280;11544;42.020;23.094;2023-04-28T09:26:16;97480.19;;;17.18;33.75
22755;BME280;11544;42.020;23.094;2023-04-28T09:28:58;97470.88;;;17.57;33.74
22755;BME280;11544;42.020;23.094;2023-04-28T09:31:47;97476.81;;;17.00;32.68
22755;BME280;11544;42.020;23.094;2023-04-28T09:34:19;97470.28;;;17.38;33.45
22755;BME280;11544;42.020;23.094;2023-04-28T09:36:47;97473.41;;;16.19;31.92
22755;BME280;11544;42.020;23.094;2023-04-28T09:39:27;97462.81;;;15.87;31.59
22755;BME280;11544;42.020;23.094;2023-04-28T09:41:55;97459.00;;;16.42;32.59
22755;BME280;11544;42.020;23.094;2023-04-28T09:44:22;97460.53;;;16.62;31.92
22755;BME280;11544;42.020;23.094;2023-04-28T09:46:49;97450.94;;;17.23;34.54
22755;BME280;11544;42.020;23.094;2023-04-28T09:49:19;97450.94;;;17.53;31.90
22755;BME280;11544;42.020;23.094;2023-04-28T09:51:46;97450.69;;;17.27;30.89
22755;BME280;11544;42.020;23.094;2023-04-28T09:54:17;97450.44;;;17.46;30.52
22755;BME280;11544;42.020;23.094;2023-04-28T09:56:47;97441.03;;;17.56;33.67
22755;BME280;11544;42.020;23.094;2023-04-28T09:59:14;97434.34;;;17.95;34.44
22755;BME280;11544;42.020;23.094;2023-04-28T10:01:42;97426.22;;;17.84;32.03
22755;BME280;11544;42.020;23.094;2023-04-28T10:04:11;97430.53;;;17.99;30.38
22755;BME280;11544;42.020;23.094;2023-04-28T10:06:43;97419.31;;;18.25;31.68
22755;BME280;11544;42.020;23.094;2023-04-28T10:09:13;97418.66;;;18.07;31.00
22755;BME280;11544;42.020;23.094;2023-04-28T10:11:44;97408.59;;;18.13;29.58
22755;BME280;11544;42.020;23.094;2023-04-28T10:14:12;97410.19;;;18.02;29.66
22755;BME280;11544;42.020;23.094;2023-04-28T10:16:41;97398.53;;;17.91;30.00
22755;BME280;11544;42.020;23.094;2023-04-28T10:19:10;97391.94;;;17.98;30.70
22755;BME280;11544;42.020;23.094;2023-04-28T10:21:59;97391.72;;;18.16;30.82
22755;BME280;11544;42.020;23.094;2023-04-28T10:27:35;97396.44;;;17.09;30.71
22755;BME280;11544;42.020;23.094;2023-04-28T10:30:22;97395.13;;;17.16;30.26
22755;BME280;11544;42.020;23.094;2023-04-28T10:35:43;97382.56;;;17.78;31.14
22755;BME280;11544;42.020;23.094;2023-04-28T10:38:12;97375.97;;;17.71;31.29
22755;BME280;11544;42.020;23.094;2023-04-28T10:40:52;97365.66;;;17.83;30.12
22755;BME280;11544;42.020;23.094;2023-04-28T10:56:21;97343.34;;;18.03;30.49
22755;BME280;11544;42.020;23.094;2023-04-28T10:58:53;97342.25;;;18.19;30.56
22755;BME280;11544;42.020;23.094;2023-04-28T11:03:54;97344.81;;;17.78;31.83
22755;BME280;11544;42.020;23.094;2023-04-28T11:14:31;97326.66;;;17.59;28.36
22755;BME280;11544;42.020;23.094;2023-04-28T11:17:06;97317.63;;;18.33;28.40
22755;BME280;11544;42.020;23.094;2023-04-28T11:19:36;97318.50;;;18.19;26.79
22755;BME280;11544;42.020;23.094;2023-04-28T11:22:20;97309.75;;;18.19;28.26
22755;BME280;11544;42.020;23.094;2023-04-28T11:25:00;97295.84;;;17.74;27.12
22755;BME280;11544;42.020;23.094;2023-04-28T11:27:32;97294.63;;;18.35;27.08
22755;BME280;11544;42.020;23.094;2023-04-28T11:30:00;97289.81;;;18.55;27.21
22755;BME280;11544;42.020;23.094;2023-04-28T11:32:33;97292.22;;;17.76;27.25
22755;BME280;11544;42.020;23.094;2023-04-28T11:35:01;97284.75;;;18.25;27.81
22755;BME280;11544;42.020;23.094;2023-04-28T11:37:32;97281.66;;;18.45;28.02
22755;BME280;11544;42.020;23.094;2023-04-28T11:40:09;97279.97;;;19.10;27.93
22755;BME280;11544;42.020;23.094;2023-04-28T11:42:46;97278.91;;;18.87;26.85
22755;BME280;11544;42.020;23.094;2023-04-28T11:45:14;97263.06;;;18.87;27.02
22755;BME280;11544;42.020;23.094;2023-04-28T11:47:46;97262.34;;;19.23;28.38
22755;BME280;11544;42.020;23.094;2023-04-28T11:50:17;97253.34;;;19.00;26.94
22755;BME280;11544;42.020;23.094;2023-04-28T11:53:00;97255.03;;;19.01;27.42
22755;BME280;11544;42.020;23.094;2023-04-28T11:55:36;97249.09;;;18.05;25.57
22755;BME280;11544;42.020;23.094;2023-04-28T11:58:19;97251.06;;;18.68;24.85
22755;BME280;11544;42.020;23.094;2023-04-28T12:01:10;97244.34;;;18.90;27.40
22755;BME280;11544;42.020;23.094;2023-04-28T12:03:47;97244.09;;;18.54;25.74
22755;BME280;11544;42.020;23.094;2023-04-28T12:06:17;97233.75;;;18.64;26.18
22755;BME280;11544;42.020;23.094;2023-04-28T12:08:48;97227.44;;;19.18;28.28
22755;BME280;11544;42.020;23.094;2023-04-28T12:11:15;97217.16;;;19.39;28.08
22755;BME280;11544;42.020;23.094;2023-04-28T12:14:09;97211.59;;;19.18;27.90
22755;BME280;11544;42.020;23.094;2023-04-28T12:16:42;97210.22;;;19.12;26.77
22755;BME280;11544;42.020;23.094;2023-04-28T12:19:12;97215.84;;;18.95;28.12
22755;BME280;11544;42.020;23.094;2023-04-28T12:21:41;97211.69;;;18.78;26.47
22755;BME280;11544;42.020;23.094;2023-04-28T12:24:19;97207.88;;;19.20;26.92
22755;BME280;11544;42.020;23.094;2023-04-28T12:26:47;97202.97;;;18.90;25.64
22755;BME280;11544;42.020;23.094;2023-04-28T12:29:34;97199.13;;;18.94;26.29
22755;BME280;11544;42.020;23.094;2023-04-28T12:32:10;97199.44;;;19.28;26.63
22755;BME280;11544;42.020;23.094;2023-04-28T12:34:43;97194.16;;;19.15;25.40
22755;BME280;11544;42.020;23.094;2023-04-28T12:37:12;97206.38;;;19.42;27.33
22755;BME280;11544;42.020;23.094;2023-04-28T12:39:47;97202.50;;;19.35;26.03
22755;BME280;11544;42.020;23.094;2023-04-28T12:42:16;97193.72;;;19.21;24.65
22755;BME280;11544;42.020;23.094;2023-04-28T12:44:46;97184.22;;;19.56;26.00
22755;BME280;11544;42.020;23.094;2023-04-28T12:47:13;97193.59;;;19.36;25.42
22755;BME280;11544;42.020;23.094;2023-04-28T12:49:40;97189.44;;;19.81;25.11
22755;BME280;11544;42.020;23.094;2023-04-28T12:52:07;97189.06;;;19.62;25.63
22755;BME280;11544;42.020;23.094;2023-04-28T12:54:35;97183.06;;;19.23;26.95
22755;BME280;11544;42.020;23.094;2023-04-28T12:57:15;97193.38;;;19.39;26.21
22755;BME280;11544;42.020;23.094;2023-04-28T12:59:43;97182.94;;;19.24;25.92
22755;BME280;11544;42.020;23.094;2023-04-28T13:02:23;97184.97;;;19.21;27.58
22755;BME280;11544;42.020;23.094;2023-04-28T13:04:53;97174.41;;;19.08;27.30
22755;BME280;11544;42.020;23.094;2023-04-28T13:07:23;97186.00;;;19.31;26.23
22755;BME280;11544;42.020;23.094;2023-04-28T13:09:58;97180.00;;;19.16;25.67
22755;BME280;11544;42.020;23.094;2023-04-28T13:12:25;97185.84;;;18.83;25.84
22755;BME280;11544;42.020;23.094;2023-04-28T13:14:57;97173.25;;;18.87;25.42
22755;BME280;11544;42.020;23.094;2023-04-28T13:17:29;97166.44;;;19.58;26.69
22755;BME280;11544;42.020;23.094;2023-04-28T13:20:06;97165.97;;;19.03;25.41
22755;BME280;11544;42.020;23.094;2023-04-28T13:22:43;97171.81;;;19.32;25.60
22755;BME280;11544;42.020;23.094;2023-04-28T13:25:10;97163.50;;;18.49;24.97
22755;BME280;11544;42.020;23.094;2023-04-28T13:27:46;97159.84;;;19.02;24.97
22755;BME280;11544;42.020;23.094;2023-04-28T13:30:14;97159.13;;;19.37;25.27
22755;BME280;11544;42.020;23.094;2023-04-28T13:32:41;97161.84;;;18.60;24.98
22755;BME280;11544;42.020;23.094;2023-04-28T13:35:23;97158.16;;;18.76;24.95
22755;BME280;11544;42.020;23.094;2023-04-28T13:37:59;97147.19;;;18.95;25.51
22755;BME280;11544;42.020;23.094;2023-04-28T13:40:31;97157.44;;;19.36;25.92
22755;BME280;11544;42.020;23.094;2023-04-28T13:42:59;97145.25;;;19.46;25.40